Terminal Aerodrome Forecast
Issued by NWS Midland/Odessa, TX

Home | Current Version | Previous Version | Text Only | Print | Product List | Glossary On
Versions: 1 2 3 4 5 6 7 8 9 10 11 12 13 14 15 16 17 18 19 20 21
000
FTUS44 KMAF 241720
TAFMAF
TAF
KMAF 241720Z 2418/2518 17012KT P6SM SCT050 BKN100
      TEMPO 2423/2503 VRB25KT 3SM TSRA BKN050CB
     FM251000 17011KT P6SM SCT010 BKN120
      TEMPO 2511/2514 BKN008
     FM251500 17013KT P6SM FEW010=

USA.gov is the U.S. government's official web portal to all federal, state and local government web resources and services.